Time;durP1;ratioP1;P1;durP2;ratioP2;P2;SDS_P1;SDS_P2;PMS_P1;PMS_P2;Temp;Humidity;BMP_temperature;BMP_pressure;BME280_temperature;BME280_humidity;BME280_pressure;Samples;Min_cycle;Max_cycle;Signal;HPM_P1;HPM_P2
2022/08/01 00:01:45;;;;;;;26.02;3.20;;;41.10;34.10;;;;;;5089661;28;20676;-62
2022/08/01 00:04:11;;;;;;;39.53;4.38;;;40.90;35.30;;;;;;5091051;28;20111;-64
2022/08/01 00:06:38;;;;;;;29.02;3.75;;;40.80;36.80;;;;;;5073472;28;20131;-64
2022/08/01 00:09:07;;;;;;;26.55;3.85;;;40.50;37.60;;;;;;5089962;28;20091;-63
2022/08/01 00:11:34;;;;;;;52.67;10.52;;;40.40;38.30;;;;;;5074659;28;20113;-64
2022/08/01 00:14:00;;;;;;;42.88;14.80;;;40.10;38.90;;;;;;5090297;28;20072;-63
2022/08/01 00:16:27;;;;;;;29.70;7.13;;;39.70;39.00;;;;;;5088966;28;20073;-62
2022/08/01 00:18:53;;;;;;;31.50;3.65;;;39.50;40.20;;;;;;5090075;28;20095;-61
2022/08/01 00:21:20;;;;;;;29.50;3.85;;;39.20;42.20;;;;;;5074567;28;20437;-62
2022/08/01 00:23:46;;;;;;;17.83;3.70;;;38.90;42.70;;;;;;5073406;28;20595;-64
2022/08/01 00:26:14;;;;;;;20.58;3.30;;;38.90;43.40;;;;;;5089343;28;20088;-63
2022/08/01 00:28:41;;;;;;;14.57;3.80;;;38.90;43.50;;;;;;5093183;28;20072;-62
2022/08/01 00:31:07;;;;;;;24.55;3.13;;;38.70;43.80;;;;;;5089305;28;20065;-62
2022/08/01 00:33:34;;;;;;;17.50;3.38;;;38.60;43.80;;;;;;5088768;28;20538;-64
2022/08/01 00:36:00;;;;;;;13.13;2.55;;;38.50;43.30;;;;;;5090754;28;20077;-63
2022/08/01 00:38:27;;;;;;;15.50;3.28;;;38.40;43.10;;;;;;5089846;28;20069;-63
2022/08/01 00:40:53;;;;;;;13.45;2.72;;;38.30;42.90;;;;;;5089007;28;20092;-65
2022/08/01 00:43:20;;;;;;;18.48;2.95;;;38.40;42.20;;;;;;5088408;28;20150;-62
2022/08/01 00:45:46;;;;;;;15.00;3.22;;;38.30;41.60;;;;;;5090664;28;20116;-64
2022/08/01 00:48:12;;;;;;;17.35;2.63;;;38.30;40.60;;;;;;5091514;28;20154;-64
2022/08/01 00:50:39;;;;;;;18.55;2.42;;;38.30;40.90;;;;;;5088868;28;20159;-62
2022/08/01 00:53:06;;;;;;;16.05;2.58;;;38.30;38.40;;;;;;5088631;28;20064;-62
2022/08/01 00:55:32;;;;;;;15.27;2.53;;;38.40;37.20;;;;;;5089485;28;20119;-64
2022/08/01 00:57:59;;;;;;;12.77;2.70;;;38.40;34.90;;;;;;5090180;28;20982;-63
2022/08/01 01:00:25;;;;;;;18.65;2.50;;;38.30;35.80;;;;;;5085842;28;20099;-64
2022/08/01 01:02:52;;;;;;;15.93;2.60;;;38.30;35.10;;;;;;5070260;28;20076;-62
2022/08/01 01:05:18;;;;;;;24.00;2.90;;;38.10;36.20;;;;;;5086717;28;20598;-64
2022/08/01 01:08:01;;;;;;;17.38;2.67;;;38.10;37.80;;;;;;5087230;28;20447;-64
2022/08/01 01:10:42;;;;;;;19.90;3.17;;;38.00;38.50;;;;;;5084748;28;20132;-62
2022/08/01 01:13:13;;;;;;;26.92;2.65;;;38.00;37.40;;;;;;5086184;28;20473;-66
2022/08/01 01:15:49;;;;;;;17.25;2.00;;;38.00;35.20;;;;;;5087943;28;20069;-66
2022/08/01 01:18:27;;;;;;;13.20;2.17;;;37.90;35.30;;;;;;5091019;28;20077;-64
2022/08/01 01:21:07;;;;;;;17.60;1.98;;;37.80;34.80;;;;;;5089705;28;20072;-62
2022/08/01 01:24:17;;;;;;;18.10;2.50;;;37.80;34.90;;;;;;5072857;28;20092;-62
2022/08/01 01:26:57;;;;;;;21.70;2.90;;;37.70;35.00;;;;;;5089174;28;20112;-63
2022/08/01 01:29:36;;;;;;;20.05;2.38;;;37.80;35.40;;;;;;5088174;28;20064;-65
2022/08/01 01:32:07;;;;;;;15.63;2.60;;;37.80;36.00;;;;;;5087230;28;20084;-64
2022/08/01 01:34:38;;;;;;;17.00;2.17;;;37.80;35.50;;;;;;5087961;28;20534;-65
2022/08/01 01:37:11;;;;;;;11.85;1.90;;;37.80;35.60;;;;;;5088556;28;20088;-62
2022/08/01 01:39:46;;;;;;;21.35;2.55;;;37.70;36.50;;;;;;5088848;28;20096;-65
2022/08/01 01:42:14;;;;;;;19.20;2.37;;;37.60;37.40;;;;;;5088640;28;20080;-62
2022/08/01 01:44:43;;;;;;;13.85;2.20;;;37.60;37.60;;;;;;5084743;28;20076;-65
2022/08/01 01:47:11;;;;;;;16.23;2.42;;;37.60;38.00;;;;;;5086221;28;20084;-62
2022/08/01 01:49:39;;;;;;;31.55;3.33;;;37.60;37.80;;;;;;5087036;28;20163;-67
2022/08/01 01:52:07;;;;;;;22.08;2.25;;;37.50;38.30;;;;;;5083636;28;20068;-64
2022/08/01 01:54:40;;;;;;;19.17;2.55;;;37.50;39.10;;;;;;5085448;28;20089;-64
2022/08/01 01:57:11;;;;;;;16.73;2.63;;;37.40;39.40;;;;;;5087044;28;20450;-63
2022/08/01 01:59:39;;;;;;;15.00;2.83;;;37.40;38.70;;;;;;5069457;28;20493;-63
2022/08/01 02:02:07;;;;;;;13.88;2.20;;;37.30;38.80;;;;;;5088041;28;20134;-64
2022/08/01 02:04:38;;;;;;;22.63;2.38;;;37.20;39.00;;;;;;5089708;28;20075;-66
2022/08/01 02:07:08;;;;;;;12.00;2.20;;;37.20;39.00;;;;;;5086521;28;20085;-63
2022/08/01 02:09:37;;;;;;;12.13;2.28;;;37.10;39.10;;;;;;5087912;28;20065;-64
2022/08/01 02:12:05;;;;;;;16.73;2.80;;;37.10;39.00;;;;;;5071545;28;20073;-65
2022/08/01 02:14:35;;;;;;;15.23;2.30;;;37.10;39.10;;;;;;5088050;28;20068;-63
2022/08/01 02:17:03;;;;;;;12.32;2.30;;;37.00;39.60;;;;;;5070754;28;20073;-64
2022/08/01 02:19:30;;;;;;;20.25;2.22;;;36.90;40.10;;;;;;5088256;28;20069;-64
2022/08/01 02:22:01;;;;;;;12.75;2.40;;;36.80;40.80;;;;;;5088092;28;20092;-62
2022/08/01 02:24:37;;;;;;;15.70;2.33;;;36.70;42.20;;;;;;5087500;28;20088;-65
2022/08/01 02:27:12;;;;;;;21.15;3.15;;;36.60;43.20;;;;;;5088113;28;20099;-65
2022/08/01 02:29:50;;;;;;;17.98;2.78;;;36.60;44.00;;;;;;5088395;28;20075;-63
2022/08/01 02:32:29;;;;;;;17.60;2.70;;;36.60;44.80;;;;;;5059751;28;20103;-64
2022/08/01 02:34:57;;;;;;;26.05;3.50;;;36.50;45.00;;;;;;5070610;28;20104;-64
2022/08/01 02:37:26;;;;;;;32.72;3.15;;;36.40;45.10;;;;;;5092202;28;20546;-64
2022/08/01 02:39:54;;;;;;;26.98;3.28;;;36.20;45.50;;;;;;5070160;28;20517;-64
2022/08/01 02:42:25;;;;;;;20.55;2.40;;;36.20;44.90;;;;;;5053152;28;20169;-63
2022/08/01 02:44:53;;;;;;;18.00;2.58;;;36.10;43.90;;;;;;5089220;28;20084;-63
2022/08/01 02:47:22;;;;;;;22.92;3.20;;;36.00;43.50;;;;;;5086187;28;20091;-63
2022/08/01 02:49:52;;;;;;;22.15;2.75;;;35.90;42.80;;;;;;5093437;28;20077;-64
2022/08/01 02:52:21;;;;;;;31.13;3.22;;;35.80;43.70;;;;;;5088248;28;20472;-63
2022/08/01 02:54:51;;;;;;;23.02;3.05;;;35.80;44.60;;;;;;5070828;28;20153;-64
2022/08/01 02:57:20;;;;;;;28.58;3.47;;;35.70;45.80;;;;;;5071475;28;20129;-63
2022/08/01 02:59:49;;;;;;;19.48;2.92;;;35.60;46.70;;;;;;5071479;28;20102;-64
2022/08/01 03:02:17;;;;;;;13.07;2.70;;;35.50;47.60;;;;;;5086209;28;20158;-63
2022/08/01 03:04:45;;;;;;;17.83;3.00;;;35.40;48.70;;;;;;5086038;28;20077;-62
2022/08/01 03:07:12;;;;;;;24.95;3.55;;;35.30;49.90;;;;;;5070452;28;20088;-65
2022/08/01 03:09:45;;;;;;;25.70;3.78;;;35.20;50.40;;;;;;5088332;28;20129;-66
2022/08/01 03:12:17;;;;;;;29.85;2.80;;;35.10;51.00;;;;;;5104883;28;20065;-65
2022/08/01 03:14:46;;;;;;;20.55;3.47;;;35.00;51.30;;;;;;5085110;28;20081;-64
2022/08/01 03:17:13;;;;;;;23.20;3.35;;;34.90;51.40;;;;;;5084873;28;20081;-63
2022/08/01 03:19:40;;;;;;;26.80;3.35;;;34.90;51.50;;;;;;5091383;28;20067;-64
2022/08/01 03:22:11;;;;;;;17.98;3.10;;;34.80;51.20;;;;;;5088476;28;20088;-64
2022/08/01 03:24:40;;;;;;;30.38;3.20;;;34.70;51.10;;;;;;5088975;28;20107;-65
2022/08/01 03:27:08;;;;;;;33.45;3.42;;;34.80;50.80;;;;;;5091245;28;20098;-65
2022/08/01 03:29:37;;;;;;;22.65;3.30;;;34.80;50.80;;;;;;5091662;28;20500;-65
2022/08/01 03:32:05;;;;;;;15.98;2.65;;;34.70;51.00;;;;;;5092312;28;20121;-65
2022/08/01 03:34:32;;;;;;;31.35;3.35;;;34.60;50.70;;;;;;5090865;28;20096;-65
2022/08/01 03:37:07;;;;;;;19.30;2.65;;;34.60;50.70;;;;;;5075157;28;20119;-65
2022/08/01 03:40:11;;;;;;;20.95;3.42;;;34.50;50.70;;;;;;5091677;28;20491;-64
2022/08/01 03:42:46;;;;;;;23.85;3.45;;;34.50;50.40;;;;;;5033358;28;20085;-66
2022/08/01 03:45:21;;;;;;;26.13;3.40;;;34.40;50.50;;;;;;5012440;28;20563;-63
2022/08/01 03:47:51;;;;;;;23.90;3.60;;;34.40;50.40;;;;;;5025363;28;20554;-66
2022/08/01 03:50:21;;;;;;;19.98;3.55;;;34.40;50.40;;;;;;5033739;28;20070;-62
2022/08/01 03:52:50;;;;;;;17.52;3.00;;;34.30;50.60;;;;;;5019253;28;20168;-63
2022/08/01 03:55:18;;;;;;;14.68;2.78;;;34.40;50.90;;;;;;5021689;28;20170;-63
2022/08/01 03:57:47;;;;;;;28.15;3.50;;;34.30;51.10;;;;;;5015390;28;20084;-66
2022/08/01 04:00:18;;;;;;;26.55;3.83;;;34.30;51.40;;;;;;5035904;28;20081;-64
2022/08/01 04:02:49;;;;;;;28.60;3.17;;;34.20;51.80;;;;;;5018293;28;20082;-65
2022/08/01 04:05:16;;;;;;;117.57;7.13;;;34.20;52.10;;;;;;5033026;28;20172;-66
2022/08/01 04:07:47;;;;;;;22.17;3.65;;;34.20;52.80;;;;;;5010832;28;20094;-65
2022/08/01 04:10:14;;;;;;;29.67;3.80;;;34.20;52.60;;;;;;5017625;28;20128;-66
2022/08/01 04:12:40;;;;;;;22.33;2.95;;;34.10;52.80;;;;;;5027966;28;20077;-65
2022/08/01 04:15:07;;;;;;;24.02;3.80;;;34.10;53.00;;;;;;5015064;28;20084;-65
2022/08/01 04:17:34;;;;;;;22.58;4.45;;;34.00;53.20;;;;;;5030069;28;20130;-66
2022/08/01 04:20:00;;;;;;;24.85;3.95;;;34.00;53.00;;;;;;5073241;28;20722;-64
2022/08/01 04:22:27;;;;;;;18.75;3.83;;;34.00;53.00;;;;;;5090943;28;20080;-66
2022/08/01 04:24:55;;;;;;;21.20;3.78;;;33.90;52.90;;;;;;5088731;28;20108;-65
2022/08/01 04:27:32;;;;;;;17.23;3.85;;;33.90;52.90;;;;;;5089965;28;20127;-62
2022/08/01 04:30:00;;;;;;;28.83;7.50;;;33.80;52.60;;;;;;5090340;28;20087;-66
2022/08/01 04:32:31;;;;;;;27.63;9.95;;;33.80;52.90;;;;;;5090001;28;20081;-64
2022/08/01 04:35:00;;;;;;;29.20;11.05;;;33.80;53.20;;;;;;5092222;28;20077;-63
2022/08/01 04:37:27;;;;;;;24.38;7.57;;;33.80;53.60;;;;;;5072063;28;20485;-63
2022/08/01 04:39:55;;;;;;;17.70;5.55;;;33.80;54.00;;;;;;5055948;28;20099;-64
2022/08/01 04:42:22;;;;;;;14.48;4.55;;;33.80;54.40;;;;;;5090357;28;20174;-62
2022/08/01 04:44:48;;;;;;;15.23;3.95;;;33.60;54.80;;;;;;5090573;28;20076;-63
2022/08/01 04:47:15;;;;;;;17.17;3.67;;;33.60;55.30;;;;;;5089219;28;20085;-63
2022/08/01 04:49:42;;;;;;;18.67;3.60;;;33.60;55.60;;;;;;5075441;28;20069;-63
2022/08/01 04:52:09;;;;;;;11.80;3.20;;;33.60;55.80;;;;;;5089676;28;20076;-64
2022/08/01 04:54:36;;;;;;;16.48;3.30;;;33.50;55.80;;;;;;5074162;28;20088;-65
2022/08/01 04:57:06;;;;;;;18.52;3.80;;;33.50;56.00;;;;;;5088909;28;20080;-63
2022/08/01 04:59:39;;;;;;;16.85;3.60;;;33.50;56.30;;;;;;5090608;28;20118;-64
2022/08/01 05:02:14;;;;;;;18.98;2.90;;;33.40;57.00;;;;;;5075954;28;20073;-65
2022/08/01 05:04:42;;;;;;;25.85;4.03;;;33.30;57.50;;;;;;5089210;28;20092;-67
2022/08/01 05:07:10;;;;;;;14.85;3.42;;;33.30;58.10;;;;;;5089182;28;20581;-67
2022/08/01 05:09:37;;;;;;;18.00;3.78;;;33.30;58.60;;;;;;5088771;28;20129;-66
2022/08/01 05:12:06;;;;;;;20.63;3.67;;;33.30;58.70;;;;;;5088110;28;20084;-67
2022/08/01 05:14:33;;;;;;;10.63;3.45;;;33.30;59.30;;;;;;5089091;28;20209;-66
2022/08/01 05:17:07;;;;;;;18.70;3.70;;;33.20;59.90;;;;;;5087162;28;20069;-66
2022/08/01 05:19:35;;;;;;;16.77;3.38;;;33.20;60.60;;;;;;5072380;28;20082;-65
2022/08/01 05:22:04;;;;;;;13.80;3.80;;;33.10;60.70;;;;;;5090408;28;20129;-66
2022/08/01 05:24:31;;;;;;;14.68;3.70;;;33.10;60.40;;;;;;5088695;28;20073;-66
2022/08/01 05:26:59;;;;;;;18.60;3.95;;;33.10;61.60;;;;;;5072435;28;20538;-65
2022/08/01 05:29:26;;;;;;;18.80;4.07;;;33.00;63.00;;;;;;5090956;28;20437;-68
2022/08/01 05:31:53;;;;;;;17.67;3.40;;;33.00;63.60;;;;;;5088870;28;20080;-66
2022/08/01 05:34:20;;;;;;;13.55;3.38;;;33.00;63.90;;;;;;5089209;28;20117;-66
2022/08/01 05:36:47;;;;;;;19.45;4.13;;;32.90;64.30;;;;;;5055759;28;20126;-67
2022/08/01 05:39:15;;;;;;;17.77;3.53;;;32.90;65.10;;;;;;5089923;28;20134;-65
2022/08/01 05:41:42;;;;;;;22.60;4.40;;;32.90;65.30;;;;;;5089485;28;20079;-65
2022/08/01 05:44:09;;;;;;;19.88;3.97;;;32.80;65.00;;;;;;5088538;28;20123;-68
2022/08/01 05:46:35;;;;;;;15.30;4.13;;;32.80;64.60;;;;;;5089280;28;20481;-66
2022/08/01 05:49:03;;;;;;;16.50;3.75;;;32.70;65.10;;;;;;5095001;28;20088;-66
2022/08/01 05:51:30;;;;;;;16.40;3.67;;;32.80;66.10;;;;;;5087545;28;20064;-67
2022/08/01 05:53:57;;;;;;;15.63;4.07;;;32.80;66.80;;;;;;5090561;28;20920;-69
2022/08/01 05:56:23;;;;;;;19.65;4.75;;;32.70;67.30;;;;;;5087365;28;20113;-67
2022/08/01 05:58:51;;;;;;;18.00;4.40;;;32.60;67.90;;;;;;5091418;28;20533;-68
2022/08/01 06:01:18;;;;;;;16.75;4.10;;;32.60;68.30;;;;;;5088371;28;20159;-68
2022/08/01 06:03:45;;;;;;;21.98;4.07;;;32.50;68.50;;;;;;5071225;28;20180;-65
2022/08/01 06:06:11;;;;;;;25.02;5.18;;;32.50;69.00;;;;;;5087028;28;20064;-68
2022/08/01 06:08:37;;;;;;;22.08;4.97;;;32.50;69.60;;;;;;5088570;28;20106;-66
2022/08/01 06:11:05;;;;;;;22.58;4.93;;;32.40;70.60;;;;;;5087706;28;20510;-66
2022/08/01 06:13:31;;;;;;;18.92;4.85;;;32.40;71.70;;;;;;5087646;28;20079;-65
2022/08/01 06:15:58;;;;;;;20.63;4.95;;;32.30;73.50;;;;;;5088070;28;20095;-68
2022/08/01 06:18:25;;;;;;;16.58;5.13;;;32.30;74.30;;;;;;5082764;28;20081;-68
2022/08/01 06:20:51;;;;;;;18.60;4.63;;;32.20;75.20;;;;;;5070308;28;20104;-68
2022/08/01 06:23:17;;;;;;;16.65;4.25;;;32.30;75.40;;;;;;5088110;28;20078;-67
2022/08/01 06:25:44;;;;;;;25.52;5.60;;;32.20;76.00;;;;;;5087871;28;20095;-67
2022/08/01 06:28:10;;;;;;;26.92;4.50;;;32.10;75.80;;;;;;5087976;28;20081;-69
2022/08/01 06:30:37;;;;;;;16.33;4.43;;;32.10;76.10;;;;;;5087170;28;20478;-68
2022/08/01 06:33:06;;;;;;;15.63;4.72;;;32.10;76.20;;;;;;5070131;28;20084;-69
2022/08/01 06:35:33;;;;;;;21.05;5.57;;;32.10;75.80;;;;;;5088778;28;20069;-66
2022/08/01 06:37:59;;;;;;;19.42;4.00;;;32.10;76.10;;;;;;5086981;28;20080;-67
2022/08/01 06:40:26;;;;;;;18.15;4.97;;;32.00;76.10;;;;;;5087697;28;20534;-66
2022/08/01 06:42:52;;;;;;;17.25;4.65;;;32.00;76.00;;;;;;5088402;28;20083;-66
2022/08/01 06:45:22;;;;;;;16.90;5.13;;;32.00;76.40;;;;;;5087946;28;20084;-66
2022/08/01 06:47:48;;;;;;;16.23;4.45;;;31.90;76.30;;;;;;5086334;28;20080;-68
2022/08/01 06:50:15;;;;;;;15.98;3.95;;;31.90;76.30;;;;;;5087445;28;20146;-66
2022/08/01 06:52:41;;;;;;;14.10;3.88;;;31.90;76.60;;;;;;5086391;28;20171;-66
2022/08/01 06:55:08;;;;;;;16.80;4.28;;;31.90;76.80;;;;;;5087549;28;20162;-67
2022/08/01 06:57:35;;;;;;;14.80;3.80;;;31.90;77.10;;;;;;5086432;28;20426;-68
2022/08/01 07:00:11;;;;;;;19.77;3.67;;;31.80;77.40;;;;;;5086986;28;20097;-67
2022/08/01 07:02:37;;;;;;;16.75;4.40;;;31.80;77.90;;;;;;5087769;28;20118;-68
2022/08/01 07:05:04;;;;;;;17.08;4.55;;;31.70;78.50;;;;;;5088453;28;20085;-67
2022/08/01 07:07:31;;;;;;;17.70;4.78;;;31.70;79.00;;;;;;5088665;28;20490;-68
2022/08/01 07:09:58;;;;;;;12.88;4.15;;;31.70;79.40;;;;;;5086673;28;20447;-67
2022/08/01 07:12:24;;;;;;;16.38;4.13;;;31.70;79.60;;;;;;5086019;28;20072;-68
2022/08/01 07:14:50;;;;;;;15.18;4.18;;;31.70;79.80;;;;;;5087473;28;20068;-67
2022/08/01 07:17:17;;;;;;;17.42;4.00;;;31.60;80.20;;;;;;5086280;28;20076;-69
2022/08/01 07:19:43;;;;;;;16.92;4.25;;;31.60;80.70;;;;;;5084550;28;20246;-69
2022/08/01 07:22:10;;;;;;;11.65;3.58;;;31.60;80.90;;;;;;5086255;28;20080;-67
2022/08/01 07:24:36;;;;;;;16.08;4.55;;;31.60;81.20;;;;;;5088689;28;20080;-67
2022/08/01 07:27:02;;;;;;;15.15;4.07;;;31.60;81.60;;;;;;5085362;28;20130;-68
2022/08/01 07:29:29;;;;;;;17.58;4.85;;;31.60;82.30;;;;;;5085477;28;20084;-67
2022/08/01 07:31:57;;;;;;;15.38;5.22;;;31.60;82.90;;;;;;5087283;28;20068;-68
2022/08/01 07:34:25;;;;;;;17.38;4.68;;;31.50;83.30;;;;;;5086433;28;20168;-67
2022/08/01 07:36:52;;;;;;;16.30;4.25;;;31.50;83.50;;;;;;5086366;28;20187;-70
2022/08/01 07:39:19;;;;;;;15.32;3.92;;;31.50;83.80;;;;;;5069693;28;20096;-66
2022/08/01 07:41:46;;;;;;;19.50;4.32;;;31.40;83.90;;;;;;5086430;28;20135;-67
2022/08/01 07:44:12;;;;;;;17.55;4.53;;;31.40;84.40;;;;;;5087079;28;20092;-69
2022/08/01 07:46:38;;;;;;;15.55;3.85;;;31.40;84.80;;;;;;5086877;28;20187;-67
2022/08/01 07:49:05;;;;;;;16.52;3.90;;;31.30;85.20;;;;;;5089343;28;20175;-67
2022/08/01 07:51:31;;;;;;;16.77;4.60;;;31.20;85.60;;;;;;5087782;28;20069;-67
2022/08/01 07:53:58;;;;;;;14.73;3.63;;;31.20;85.90;;;;;;5087362;28;20088;-67
2022/08/01 07:56:25;;;;;;;12.60;4.07;;;31.20;86.40;;;;;;5085045;28;20112;-68
2022/08/01 07:58:51;;;;;;;15.55;4.22;;;31.20;86.70;;;;;;5086015;28;20090;-67
2022/08/01 08:01:19;;;;;;;19.90;4.13;;;31.20;87.20;;;;;;5085706;28;20100;-67
2022/08/01 08:03:45;;;;;;;17.88;4.25;;;31.10;87.60;;;;;;5086805;28;20072;-67
2022/08/01 08:06:12;;;;;;;22.15;4.53;;;31.10;88.00;;;;;;5086334;28;20110;-67
2022/08/01 08:08:39;;;;;;;17.45;3.72;;;31.10;88.40;;;;;;5084568;28;20568;-69
2022/08/01 08:11:05;;;;;;;20.85;4.95;;;31.00;89.10;;;;;;5088062;28;20084;-68
2022/08/01 08:13:32;;;;;;;18.33;4.18;;;31.00;89.20;;;;;;5090177;28;20065;-70
2022/08/01 08:15:59;;;;;;;17.45;4.75;;;31.00;89.60;;;;;;5089461;28;20137;-69
2022/08/01 08:18:26;;;;;;;30.45;4.53;;;31.00;89.90;;;;;;5094956;28;20084;-70
2022/08/01 08:20:52;;;;;;;21.38;4.30;;;30.90;90.00;;;;;;5086426;28;20111;-69
2022/08/01 08:26:03;;;;;;;17.75;4.68;;;30.90;90.40;;;;;;5091017;28;20092;-68
2022/08/01 08:28:29;;;;;;;13.68;4.25;;;30.90;90.20;;;;;;5089163;28;20096;-69
2022/08/01 08:30:56;;;;;;;20.00;4.15;;;30.90;90.30;;;;;;5072755;28;20076;-71
2022/08/01 08:33:22;;;;;;;18.20;3.80;;;30.90;90.50;;;;;;5089301;28;20530;-69
2022/08/01 08:35:49;;;;;;;17.98;4.38;;;30.90;90.60;;;;;;5090543;28;20126;-68
2022/08/01 08:38:15;;;;;;;12.73;3.83;;;30.90;91.20;;;;;;5090556;28;20487;-69
2022/08/01 08:40:42;;;;;;;23.77;4.40;;;30.80;91.40;;;;;;5090931;28;20574;-67
2022/08/01 08:43:09;;;;;;;21.17;4.30;;;30.80;91.20;;;;;;5090923;28;20084;-67
2022/08/01 08:45:36;;;;;;;16.92;3.60;;;30.80;91.50;;;;;;5090076;28;20072;-68
2022/08/01 08:48:04;;;;;;;17.08;4.50;;;30.70;91.60;;;;;;5089885;28;20543;-67
2022/08/01 08:50:31;;;;;;;28.60;4.50;;;30.80;91.90;;;;;;5072401;28;20076;-67
2022/08/01 08:53:01;;;;;;;21.48;4.30;;;30.70;92.10;;;;;;5088920;28;20064;-69
2022/08/01 08:55:28;;;;;;;14.05;4.25;;;30.70;92.50;;;;;;5088120;28;20208;-66
2022/08/01 08:57:59;;;;;;;16.48;4.35;;;30.70;92.80;;;;;;5089247;28;20081;-68
2022/08/01 09:00:26;;;;;;;16.13;4.47;;;30.60;93.10;;;;;;5092051;28;20129;-68
2022/08/01 09:02:55;;;;;;;18.48;4.93;;;30.60;93.60;;;;;;5088296;28;20474;-68
2022/08/01 09:05:27;;;;;;;21.23;4.80;;;30.60;94.00;;;;;;5094220;28;20073;-68
2022/08/01 09:07:54;;;;;;;18.08;4.30;;;30.60;94.40;;;;;;5089948;28;20538;-69
2022/08/01 09:10:21;;;;;;;20.95;4.38;;;30.50;94.70;;;;;;5089722;28;20571;-69
2022/08/01 09:13:22;;;;;;;25.65;4.72;;;30.40;95.20;;;;;;5088684;28;20126;-73
2022/08/01 09:15:53;;;;;;;18.45;4.32;;;30.40;95.60;;;;;;5036139;28;20065;-68
2022/08/01 09:18:43;;;;;;;23.42;4.72;;;30.40;95.80;;;;;;5034577;28;20110;-69
2022/08/01 09:21:14;;;;;;;22.95;5.18;;;30.40;96.00;;;;;;5024345;28;20161;-70
2022/08/01 09:23:54;;;;;;;20.08;4.32;;;30.30;96.30;;;;;;5025184;28;20081;-70
2022/08/01 09:26:35;;;;;;;17.30;4.60;;;30.30;96.40;;;;;;5039109;28;20393;-69
2022/08/01 09:29:07;;;;;;;24.35;4.47;;;30.30;96.50;;;;;;5009259;28;20173;-67
2022/08/01 09:31:42;;;;;;;19.50;3.97;;;30.40;96.70;;;;;;5022541;28;20170;-68
2022/08/01 09:34:11;;;;;;;15.75;4.15;;;30.40;96.80;;;;;;5033156;28;20084;-66
2022/08/01 09:36:55;;;;;;;14.80;4.22;;;30.40;96.90;;;;;;5018650;28;20606;-71
2022/08/01 09:39:33;;;;;;;17.95;4.43;;;30.30;97.20;;;;;;5028705;28;20081;-69
2022/08/01 09:42:02;;;;;;;17.55;4.32;;;30.20;97.60;;;;;;5013119;28;20077;-67
2022/08/01 09:44:42;;;;;;;17.65;4.22;;;30.30;97.80;;;;;;5026576;28;20119;-68
2022/08/01 09:47:09;;;;;;;19.42;5.05;;;30.30;97.90;;;;;;5017437;28;20094;-68
2022/08/01 09:49:37;;;;;;;23.23;4.97;;;30.30;98.20;;;;;;5047450;28;20076;-71
2022/08/01 09:52:22;;;;;;;21.10;4.47;;;30.30;98.60;;;;;;5092307;28;20442;-68
2022/08/01 09:54:59;;;;;;;22.02;5.03;;;30.40;98.30;;;;;;5090110;28;20108;-69
2022/08/01 09:57:28;;;;;;;17.67;3.97;;;30.40;98.00;;;;;;5090575;28;20076;-68
2022/08/01 09:59:59;;;;;;;17.73;4.07;;;30.50;98.00;;;;;;5073552;28;20131;-69
2022/08/01 10:02:36;;;;;;;20.73;4.53;;;30.50;97.90;;;;;;5073713;28;20134;-67
2022/08/01 10:05:05;;;;;;;20.65;4.45;;;30.60;97.80;;;;;;5071503;28;20563;-68
2022/08/01 10:07:32;;;;;;;18.15;4.50;;;30.60;97.80;;;;;;5089795;28;20561;-69
2022/08/01 10:10:15;;;;;;;18.30;4.10;;;30.70;97.40;;;;;;5087579;28;20077;-70
2022/08/01 10:12:43;;;;;;;17.75;4.85;;;30.60;97.70;;;;;;5088978;28;20073;-67
2022/08/01 10:15:10;;;;;;;19.85;4.70;;;30.60;97.60;;;;;;5089861;28;20069;-69
2022/08/01 10:17:40;;;;;;;17.58;4.55;;;30.60;97.70;;;;;;5089614;28;20081;-70
2022/08/01 10:20:08;;;;;;;21.15;4.35;;;30.50;98.00;;;;;;5088769;28;20497;-70
2022/08/01 10:22:38;;;;;;;16.58;5.00;;;30.50;98.30;;;;;;5086865;28;20076;-68
2022/08/01 10:25:09;;;;;;;18.63;4.68;;;30.50;98.50;;;;;;5089221;28;20595;-69
2022/08/01 10:27:38;;;;;;;17.98;4.80;;;30.50;98.40;;;;;;5088058;28;20100;-70
2022/08/01 10:30:09;;;;;;;19.73;4.95;;;30.50;98.60;;;;;;5088495;28;20073;-70
2022/08/01 10:32:36;;;;;;;21.83;4.57;;;30.50;98.70;;;;;;5087604;28;20735;-71
2022/08/01 10:35:05;;;;;;;19.48;5.45;;;30.40;99.00;;;;;;5089187;28;20197;-69
2022/08/01 10:37:33;;;;;;;21.08;5.05;;;30.30;99.30;;;;;;5088207;28;20076;-68
2022/08/01 10:40:01;;;;;;;20.35;5.30;;;30.50;99.30;;;;;;5088837;28;20083;-70
2022/08/01 10:42:28;;;;;;;20.25;4.45;;;30.30;99.70;;;;;;5086755;28;20080;-70
2022/08/01 10:44:55;;;;;;;20.02;4.40;;;30.40;99.80;;;;;;5088074;28;20072;-70
2022/08/01 10:47:34;;;;;;;20.30;4.75;;;30.30;99.70;;;;;;5093390;22;20130;-67
2022/08/01 10:50:13;;;;;;;17.08;3.95;;;30.30;99.80;;;;;;5006503;28;20603;-69
2022/08/01 10:52:40;;;;;;;20.33;4.10;;;30.30;99.90;;;;;;5007862;28;20090;-67
2022/08/01 10:55:11;;;;;;;20.30;4.60;;;30.30;99.90;;;;;;5014848;28;20509;-71
2022/08/01 10:57:48;;;;;;;22.48;5.15;;;30.30;99.90;;;;;;5014021;28;20525;-69
2022/08/01 11:00:18;;;;;;;20.05;4.68;;;30.30;99.90;;;;;;5020292;28;20120;-69
2022/08/01 11:03:00;;;;;;;17.08;3.95;;;30.30;99.90;;;;;;5019324;28;20078;-69
2022/08/01 11:05:28;;;;;;;21.58;5.50;;;30.30;99.90;;;;;;5013352;28;20102;-69
2022/08/01 11:07:55;;;;;;;22.67;4.68;;;30.20;99.90;;;;;;5017521;28;20433;-67
2022/08/01 11:10:45;;;;;;;22.27;5.40;;;30.20;99.90;;;;;;5013983;28;20066;-69
2022/08/01 11:13:12;;;;;;;18.60;4.65;;;30.20;99.90;;;;;;5012629;28;20520;-70
2022/08/01 11:15:40;;;;;;;23.00;5.30;;;30.20;99.90;;;;;;5012478;28;20070;-71
2022/08/01 11:18:32;;;;;;;22.08;5.03;;;30.10;99.90;;;;;;5030761;28;20101;-70
2022/08/01 11:21:02;;;;;;;18.08;4.68;;;30.20;99.90;;;;;;5028124;28;20070;-70
2022/08/01 11:23:31;;;;;;;23.15;4.72;;;30.10;99.90;;;;;;5029088;28;20168;-69
2022/08/01 11:26:03;;;;;;;22.25;5.03;;;30.10;99.90;;;;;;5027499;28;20461;-69
2022/08/01 11:28:31;;;;;;;17.65;4.60;;;30.00;99.90;;;;;;5027687;28;20086;-69
2022/08/01 11:31:12;;;;;;;18.45;5.57;;;30.00;99.90;;;;;;5027978;28;20227;-69
2022/08/01 11:33:41;;;;;;;21.13;4.43;;;30.00;99.90;;;;;;5027809;28;20089;-69
2022/08/01 11:36:11;;;;;;;24.23;4.95;;;30.00;99.90;;;;;;5029266;28;20073;-69
2022/08/01 11:39:08;;;;;;;20.85;4.80;;;29.90;99.90;;;;;;5029654;28;20086;-69
2022/08/01 11:41:35;;;;;;;16.65;4.20;;;29.90;99.90;;;;;;5025849;28;20086;-70
2022/08/01 11:44:13;;;;;;;17.95;4.57;;;29.90;99.90;;;;;;5029014;28;20136;-72
2022/08/01 11:47:07;;;;;;;22.13;4.95;;;29.90;99.90;;;;;;5030046;28;20597;-69
2022/08/01 11:49:44;;;;;;;20.50;5.82;;;29.90;99.90;;;;;;5014147;28;20211;-69
2022/08/01 11:52:10;;;;;;;20.92;5.32;;;29.80;99.90;;;;;;5030357;28;20070;-70
2022/08/01 11:54:46;;;;;;;21.55;5.00;;;29.80;99.90;;;;;;5031189;28;20502;-69
2022/08/01 11:57:23;;;;;;;20.50;5.03;;;29.80;99.90;;;;;;5031849;28;20077;-68
2022/08/01 11:59:53;;;;;;;18.27;5.07;;;29.80;99.90;;;;;;5031348;28;20163;-68
2022/08/01 12:02:20;;;;;;;25.92;5.60;;;29.70;99.90;;;;;;5013083;28;20129;-69
2022/08/01 12:04:54;;;;;;;22.55;5.40;;;29.70;99.90;;;;;;5013708;28;20594;-68
2022/08/01 12:07:21;;;;;;;16.40;4.50;;;29.70;99.90;;;;;;5013531;28;20177;-70
2022/08/01 12:09:48;;;;;;;18.85;4.68;;;29.70;99.90;;;;;;5012177;28;20074;-71
2022/08/01 12:12:19;;;;;;;27.73;5.30;;;29.60;99.90;;;;;;5030705;28;20098;-68
2022/08/01 12:14:53;;;;;;;21.88;4.93;;;29.60;99.90;;;;;;5030952;28;20069;-68
2022/08/01 12:17:28;;;;;;;22.60;4.70;;;29.60;99.90;;;;;;5012200;28;20109;-69
2022/08/01 12:19:54;;;;;;;16.58;4.57;;;29.50;99.90;;;;;;5010276;28;20073;-71
2022/08/01 12:22:24;;;;;;;19.05;4.35;;;29.50;99.90;;;;;;5011923;28;20077;-70
2022/08/01 12:24:50;;;;;;;24.20;4.85;;;29.50;99.90;;;;;;5013681;28;20549;-70
2022/08/01 12:27:30;;;;;;;25.80;5.43;;;29.50;99.90;;;;;;5011665;28;20181;-70
2022/08/01 12:29:59;;;;;;;20.80;4.75;;;29.50;99.90;;;;;;5032084;28;20066;-70
2022/08/01 12:32:30;;;;;;;22.80;5.40;;;29.50;99.90;;;;;;5030607;28;20074;-68
2022/08/01 12:35:01;;;;;;;21.70;5.40;;;29.50;99.90;;;;;;5030613;28;20082;-71
2022/08/01 12:37:27;;;;;;;19.40;4.90;;;29.50;99.90;;;;;;5031167;28;20160;-69
2022/08/01 12:39:54;;;;;;;20.85;5.07;;;29.50;99.90;;;;;;5031157;28;20078;-70
2022/08/01 12:42:21;;;;;;;21.67;5.22;;;29.50;99.90;;;;;;5030335;28;20120;-68
2022/08/01 12:44:51;;;;;;;21.98;5.53;;;29.50;99.90;;;;;;5030719;28;20085;-70
2022/08/01 12:47:20;;;;;;;17.63;4.82;;;29.50;99.90;;;;;;5031735;28;20093;-71
2022/08/01 12:49:47;;;;;;;22.30;4.75;;;29.40;99.90;;;;;;5015477;28;20507;-69
2022/08/01 12:52:14;;;;;;;17.75;4.13;;;29.40;99.90;;;;;;5030032;28;20176;-69